Easterwood Field
KCLL : now visible

Airfield :











YOU CAN JOIN US ON...

 
LOGIN :

Register | Disclaimer

   EN    FR    IT 

 









Legend :    VFR   Marginal VFR   IFR   Intensive IFR   Very Intensive IFR
Visi :
Ceiling :
>= 8 km
>= 3000ft
5 to 8 km
1000 to 3000 ft
1500m to 5 km
500 to 1000 ft
800 to 1500m
200 to 500 ft
< 800m
< 200 ft
Symbols :   Thunderstorms  Fog  Heavy snow  Heavy precipitations  Wind > 20 kt






- Airport Elevation : 320 ft
- IATA code : CLL


KCLL - Easterwood Field

CURRENT METAR :
  • 270403Z AUTO 03006KT 10SM BKN019 BKN035 OVC050 16/12 A2994 RMK AO2 T01610122

EXPIRED METARs :
  • 270353Z AUTO 36003KT 9SM SCT019 BKN035 OVC055 16/12 A2994 RMK AO2 SLP136 T01610122
  • 270253Z AUTO 36003KT 10SM FEW036 OVC050 16/12 A2992 RMK AO2 SLP130 T01610122 53018
  • 270153Z 33006KT 10SM FEW031 OVC050 17/13 A2990 RMK AO2 SLP124 T01670128

TAF KCLL
Valid from the 27 at 00:00 until the 28 at 00:00 UTC


262320Z 2700/2724 VRB04KT P6SM SCT025 SCT060
TEMPO 2701/2702 BKN025
FM270200 00000KT P6SM SCT009 BKN025
FM270500 VRB03KT 5SM BR SCT006 OVC015
FM270900 VRB03KT 2SM BR VCSH OVC006
FM271500 15009KT P6SM OVC007
FM271800 18013KT P6SM OVC020
FM272100 17017KT P6SM OVC035
KZHU FIR / North America



MET'MAP, your aeronautical weather chart ! - Copyright ORBIFLY December 2007 - Disclaimer

ORBIFLY MET'MAP TEAM :

Programming & Development : Alexandra Zaïnal
Concept & original design : Baudouin d'Aumeries
Assistance for programming : Marc-Olivier Méhu
Technical & hardware support : Manuel Goepfert

Contact : metmap@orbifly.com




SOURCES & CREDITS :

   NOAA       Earth
Advisory